createdAt,value
2017-07-23T00:00:17.488Z,20.03
2017-07-23T00:02:43.783Z,19.63
2017-07-23T00:05:10.041Z,19.60
2017-07-23T00:07:36.337Z,19.20
2017-07-23T00:10:02.603Z,19.47
2017-07-23T00:12:28.889Z,18.53
2017-07-23T00:14:55.161Z,19.33
2017-07-23T00:17:21.456Z,20.20
2017-07-23T00:19:47.722Z,21.23
2017-07-23T00:22:13.984Z,20.30
2017-07-23T00:24:40.986Z,21.13
2017-07-23T00:27:07.263Z,20.70
2017-07-23T00:29:33.533Z,20.37
2017-07-23T00:31:59.793Z,21.30
2017-07-23T00:34:26.804Z,22.00
2017-07-23T00:36:53.059Z,22.30
2017-07-23T00:39:19.334Z,20.40
2017-07-23T00:41:45.600Z,21.37
2017-07-23T00:44:11.858Z,21.43
2017-07-23T00:46:38.858Z,21.13
2017-07-23T00:49:05.149Z,21.80
2017-07-23T00:51:32.156Z,21.50
2017-07-23T00:54:00.006Z,21.30
2017-07-23T00:56:26.281Z,20.93
2017-07-23T00:58:53.280Z,21.13
2017-07-23T01:01:19.570Z,22.10
2017-07-23T01:03:45.827Z,23.73
2017-07-23T01:06:12.660Z,20.87
2017-07-23T01:08:39.812Z,22.20
2017-07-23T01:11:06.494Z,23.27
2017-07-23T01:13:33.437Z,22.83
2017-07-23T01:16:00.978Z,22.00
2017-07-23T01:18:27.293Z,24.60
2017-07-23T01:20:53.596Z,23.57
2017-07-23T01:23:19.858Z,23.50
2017-07-23T01:25:46.115Z,22.83
2017-07-23T01:28:13.137Z,22.87
2017-07-23T01:30:39.410Z,25.27
2017-07-23T01:33:06.429Z,23.37
2017-07-23T01:35:32.699Z,22.50
2017-07-23T01:37:59.002Z,22.47
2017-07-23T01:40:26.024Z,23.73
2017-07-23T01:42:52.325Z,22.03
2017-07-23T01:45:18.601Z,23.50
2017-07-23T01:47:44.883Z,24.30
2017-07-23T01:50:11.156Z,23.20
2017-07-23T01:52:37.449Z,24.53
2017-07-23T01:55:03.725Z,19.83
2017-07-23T01:57:30.751Z,24.67
2017-07-23T01:59:57.791Z,24.90
2017-07-23T02:02:24.050Z,22.93
2017-07-23T02:04:51.068Z,24.50
2017-07-23T02:07:17.349Z,23.80
2017-07-23T02:09:43.623Z,22.73
2017-07-23T02:12:09.884Z,25.80
2017-07-23T02:14:36.915Z,23.90
2017-07-23T02:17:03.210Z,23.90
2017-07-23T02:19:29.479Z,24.33
2017-07-23T02:21:55.735Z,24.63
2017-07-23T02:24:22.001Z,25.53
2017-07-23T02:26:48.280Z,22.70
2017-07-23T02:29:14.529Z,23.80
2017-07-23T02:31:40.796Z,23.30
2017-07-23T02:34:07.048Z,22.57
2017-07-23T02:36:33.308Z,23.80
2017-07-23T02:38:59.578Z,24.03
2017-07-23T02:41:25.843Z,24.30
2017-07-23T02:43:52.843Z,24.47
2017-07-23T02:46:19.112Z,23.87
2017-07-23T02:48:45.367Z,22.80
2017-07-23T02:51:12.387Z,24.10
2017-07-23T02:53:38.645Z,25.80
2017-07-23T02:56:04.897Z,23.60
2017-07-23T02:58:31.181Z,24.63
2017-07-23T03:00:57.425Z,22.07
2017-07-23T03:03:24.441Z,23.43
2017-07-23T03:05:50.695Z,22.30
2017-07-23T03:08:17.708Z,23.13
2017-07-23T03:10:43.986Z,25.00
2017-07-23T03:13:10.306Z,24.83
2017-07-23T03:15:37.311Z,23.67
2017-07-23T03:18:03.613Z,22.80
2017-07-23T03:20:29.964Z,23.13
2017-07-23T03:22:56.277Z,23.47
2017-07-23T03:25:22.570Z,24.70
2017-07-23T03:27:48.853Z,25.07
2017-07-23T03:30:15.151Z,27.40
2017-07-23T03:32:41.441Z,24.60
2017-07-23T03:35:07.728Z,25.17
2017-07-23T03:37:33.988Z,26.87
2017-07-23T03:40:00.255Z,25.37
2017-07-23T03:42:26.515Z,25.40
2017-07-23T03:44:52.807Z,25.00
2017-07-23T03:47:20.024Z,23.63
2017-07-23T03:49:47.085Z,23.90
2017-07-23T03:52:13.348Z,23.00
2017-07-23T03:54:39.617Z,24.13
2017-07-23T03:57:05.914Z,24.60
2017-07-23T03:59:32.191Z,25.27
2017-07-23T04:01:59.223Z,24.93
2017-07-23T04:04:25.557Z,26.13
2017-07-23T04:06:51.850Z,25.03
2017-07-23T04:09:18.139Z,24.97
2017-07-23T04:11:45.181Z,25.30
2017-07-23T04:14:11.444Z,25.33
2017-07-23T04:16:37.730Z,24.43
2017-07-23T04:19:03.990Z,26.43
2017-07-23T04:21:37.992Z,23.90
2017-07-23T04:24:05.021Z,25.30
2017-07-23T04:26:31.278Z,25.17
2017-07-23T04:28:58.287Z,24.90
2017-07-23T04:31:24.540Z,27.17
2017-07-23T04:33:51.553Z,27.37
2017-07-23T04:36:17.837Z,27.73
2017-07-23T04:38:44.124Z,26.67
2017-07-23T04:41:10.393Z,25.90
2017-07-23T04:43:36.668Z,27.73
2017-07-23T04:46:02.929Z,25.43
2017-07-23T04:48:29.933Z,28.93
2017-07-23T04:50:56.209Z,28.93
2017-07-23T04:53:22.495Z,25.60
2017-07-23T04:55:48.747Z,30.07
2017-07-23T04:58:15.019Z,25.20
2017-07-23T05:00:41.329Z,30.67
2017-07-23T05:03:07.611Z,29.57
2017-07-23T05:05:33.895Z,29.13
2017-07-23T05:08:00.189Z,29.80
2017-07-23T05:10:26.457Z,29.40
2017-07-23T05:12:52.764Z,28.63
2017-07-23T05:15:19.779Z,30.30
2017-07-23T05:17:46.068Z,32.47
2017-07-23T05:20:12.337Z,31.83
2017-07-23T05:22:38.616Z,33.17
2017-07-23T05:25:05.654Z,34.37
2017-07-23T05:27:32.669Z,36.70
2017-07-23T05:29:58.949Z,36.00
2017-07-23T05:32:25.225Z,36.10
2017-07-23T05:34:51.499Z,36.67
2017-07-23T05:37:17.773Z,34.97
2017-07-23T05:39:44.045Z,35.50
2017-07-23T05:42:10.319Z,35.43
2017-07-23T05:44:36.598Z,35.47
2017-07-23T05:47:03.590Z,33.27
2017-07-23T05:49:29.893Z,35.03
2017-07-23T05:51:56.152Z,38.23
2017-07-23T05:54:22.458Z,35.90
2017-07-23T05:56:48.715Z,33.40
2017-07-23T05:59:14.997Z,31.70
2017-07-23T06:01:42.041Z,30.87
2017-07-23T06:04:08.337Z,28.27
2017-07-23T06:06:34.617Z,27.70
2017-07-23T06:09:00.884Z,28.20
2017-07-23T06:11:27.156Z,30.23
2017-07-23T06:13:54.173Z,31.63
2017-07-23T06:16:20.452Z,29.47
2017-07-23T06:18:46.727Z,29.00
2017-07-23T06:21:13.017Z,28.97
2017-07-23T06:23:39.284Z,27.30
2017-07-23T06:26:06.536Z,25.30
2017-07-23T06:28:32.814Z,25.20
2017-07-23T06:30:59.089Z,26.07
2017-07-23T06:33:25.388Z,26.60
2017-07-23T06:35:53.192Z,25.97
2017-07-23T06:38:19.489Z,27.00
2017-07-23T06:40:45.762Z,27.30
2017-07-23T06:43:12.040Z,26.00
2017-07-23T06:45:38.314Z,27.67
2017-07-23T06:48:04.604Z,27.93
2017-07-23T06:50:30.863Z,26.07
2017-07-23T06:52:57.136Z,24.60
2017-07-23T06:55:24.131Z,24.63
2017-07-23T06:57:50.437Z,24.27
2017-07-23T07:00:16.720Z,26.37
2017-07-23T07:02:42.976Z,24.47
2017-07-23T07:05:09.253Z,25.63
2017-07-23T07:07:35.533Z,23.80
2017-07-23T07:10:01.828Z,25.03
2017-07-23T07:12:28.413Z,23.77
2017-07-23T07:14:54.694Z,22.77
2017-07-23T07:17:20.969Z,23.10
2017-07-23T07:19:47.239Z,23.73
2017-07-23T07:22:13.489Z,22.30
2017-07-23T07:24:40.537Z,25.47
2017-07-23T07:27:07.546Z,23.13
2017-07-23T07:29:34.732Z,21.47
2017-07-23T07:32:01.762Z,21.93
2017-07-23T07:34:28.017Z,21.07
2017-07-23T07:36:54.304Z,20.87
2017-07-23T07:39:20.582Z,20.73
2017-07-23T07:41:46.882Z,19.97
2017-07-23T07:44:13.149Z,17.80
2017-07-23T07:46:39.423Z,18.80
2017-07-23T07:49:05.700Z,18.20
2017-07-23T07:51:31.986Z,16.60
2017-07-23T07:53:58.274Z,16.27
2017-07-23T07:56:24.523Z,16.30
2017-07-23T07:58:50.818Z,15.13
2017-07-23T08:01:17.110Z,16.53
2017-07-23T08:03:43.416Z,15.43
2017-07-23T08:06:09.697Z,17.03
2017-07-23T08:08:36.025Z,14.80
2017-07-23T08:11:03.067Z,15.53
2017-07-23T08:13:30.095Z,14.50
2017-07-23T08:15:56.382Z,14.70
2017-07-23T08:18:22.652Z,15.63
2017-07-23T08:20:48.953Z,12.70
2017-07-23T08:23:15.218Z,13.60
2017-07-23T08:25:42.257Z,13.07
2017-07-23T08:28:09.288Z,13.03
2017-07-23T08:30:36.520Z,12.23
2017-07-23T08:33:02.778Z,13.20
2017-07-23T08:35:29.077Z,13.10
2017-07-23T08:37:55.355Z,11.87
2017-07-23T08:40:21.601Z,12.60
2017-07-23T08:42:48.661Z,12.00
2017-07-23T08:45:14.948Z,11.50
2017-07-23T08:47:41.215Z,11.23
2017-07-23T08:50:07.512Z,11.17
2017-07-23T08:52:33.809Z,10.90
2017-07-23T08:55:00.069Z,10.83
2017-07-23T08:57:26.339Z,11.37
2017-07-23T08:59:53.346Z,11.23
2017-07-23T09:02:19.645Z,11.20
2017-07-23T09:04:46.930Z,11.03
2017-07-23T09:07:13.206Z,11.23
2017-07-23T09:09:39.521Z,11.50
2017-07-23T09:12:05.830Z,9.97
2017-07-23T09:14:32.115Z,10.83
2017-07-23T09:16:58.406Z,11.03
2017-07-23T09:19:25.420Z,10.10
2017-07-23T09:21:51.677Z,10.17
2017-07-23T09:24:18.024Z,10.13
2017-07-23T09:26:44.284Z,10.03
2017-07-23T09:29:10.553Z,10.23
2017-07-23T09:31:37.581Z,12.13
2017-07-23T09:34:03.843Z,9.20
2017-07-23T09:36:30.132Z,9.73
2017-07-23T09:38:56.577Z,9.03
2017-07-23T09:41:22.884Z,10.23
2017-07-23T09:43:49.187Z,9.90
2017-07-23T09:46:15.471Z,10.50
2017-07-23T09:48:41.720Z,10.40
2017-07-23T09:51:08.728Z,10.00
2017-07-23T09:53:35.060Z,10.43
2017-07-23T09:56:01.360Z,10.23
2017-07-23T09:58:27.653Z,9.10
2017-07-23T10:00:53.914Z,9.93
2017-07-23T10:03:20.208Z,9.57
2017-07-23T10:05:46.506Z,9.93
2017-07-23T10:08:12.961Z,8.63
2017-07-23T10:10:39.336Z,9.80
2017-07-23T10:13:05.646Z,10.00
2017-07-23T10:15:31.932Z,10.57
2017-07-23T10:17:58.200Z,11.80
2017-07-23T10:20:24.504Z,9.47
2017-07-23T10:22:51.530Z,9.33
2017-07-23T10:25:17.957Z,8.40
2017-07-23T10:27:44.329Z,8.77
2017-07-23T10:30:10.625Z,8.07
2017-07-23T10:32:36.944Z,7.43
2017-07-23T10:35:03.288Z,8.40
2017-07-23T10:37:29.643Z,8.07
2017-07-23T10:39:56.667Z,7.87
2017-07-23T10:42:22.993Z,7.83
2017-07-23T10:44:49.358Z,7.93
2017-07-23T10:47:15.656Z,6.77
2017-07-23T10:49:41.929Z,7.20
2017-07-23T10:52:08.241Z,7.77
2017-07-23T10:54:35.280Z,6.73
2017-07-23T10:57:01.583Z,7.93
2017-07-23T10:59:27.852Z,7.20
2017-07-23T11:01:54.165Z,6.30
2017-07-23T11:04:20.461Z,6.63
2017-07-23T11:06:46.745Z,6.87
2017-07-23T11:09:13.037Z,6.97
2017-07-23T11:11:39.370Z,6.60
2017-07-23T11:14:05.667Z,7.33
2017-07-23T11:16:31.924Z,7.10
2017-07-23T11:18:58.214Z,7.00
2017-07-23T11:21:24.515Z,6.97
2017-07-23T11:23:50.800Z,5.80
2017-07-23T11:26:17.058Z,6.20
2017-07-23T11:28:43.348Z,5.40
2017-07-23T11:31:09.633Z,5.33
2017-07-23T11:33:35.930Z,5.13
2017-07-23T11:36:02.200Z,5.93
2017-07-23T11:38:29.225Z,6.17
2017-07-23T11:40:55.518Z,5.30
2017-07-23T11:43:21.808Z,5.90
2017-07-23T11:45:48.071Z,5.73
2017-07-23T11:48:14.347Z,5.80
2017-07-23T11:50:40.680Z,6.83
2017-07-23T11:53:06.989Z,5.43
2017-07-23T11:55:33.280Z,6.70
2017-07-23T11:57:59.577Z,6.60
2017-07-23T12:00:26.608Z,8.00
2017-07-23T12:02:53.629Z,7.83
2017-07-23T12:05:19.916Z,8.20
2017-07-23T12:07:46.208Z,7.60
2017-07-23T12:10:12.591Z,6.53
2017-07-23T12:12:38.918Z,7.20
2017-07-23T12:15:05.255Z,6.73
2017-07-23T12:17:31.540Z,5.93
2017-07-23T12:19:58.569Z,5.60
2017-07-23T12:22:24.913Z,5.90
2017-07-23T12:24:51.201Z,6.10
2017-07-23T12:27:17.526Z,6.10
2017-07-23T12:29:43.805Z,7.00
2017-07-23T12:32:10.124Z,6.70
2017-07-23T12:34:36.585Z,7.10
2017-07-23T12:37:02.908Z,6.87
2017-07-23T12:39:29.921Z,6.50
2017-07-23T12:41:56.222Z,7.20
2017-07-23T12:44:22.579Z,7.40
2017-07-23T12:46:49.951Z,7.30
2017-07-23T12:49:16.245Z,7.47
2017-07-23T12:51:42.533Z,8.30
2017-07-23T12:54:09.564Z,7.63
2017-07-23T12:56:35.846Z,7.60
2017-07-23T12:59:02.160Z,8.70
2017-07-23T13:01:28.440Z,9.17
2017-07-23T13:03:54.729Z,9.60
2017-07-23T13:06:21.021Z,9.13
2017-07-23T13:08:48.028Z,10.00
2017-07-23T13:11:14.293Z,11.43
2017-07-23T13:13:41.338Z,11.00
2017-07-23T13:16:08.372Z,11.63
2017-07-23T13:18:34.655Z,11.87
2017-07-23T13:21:00.940Z,10.83
2017-07-23T13:23:27.406Z,12.53
2017-07-23T13:25:53.768Z,12.43
2017-07-23T13:28:20.062Z,12.77
2017-07-23T13:30:46.315Z,12.60
2017-07-23T13:33:12.635Z,12.80
2017-07-23T13:35:38.946Z,13.13
2017-07-23T13:38:05.238Z,13.00
2017-07-23T13:40:31.545Z,12.43
2017-07-23T13:42:57.864Z,12.03
2017-07-23T13:45:24.181Z,12.13
2017-07-23T13:47:50.438Z,12.80
2017-07-23T13:50:16.745Z,12.97
2017-07-23T13:52:43.020Z,12.60
2017-07-23T13:55:09.316Z,13.07
2017-07-23T13:57:35.603Z,14.00
2017-07-23T14:00:02.637Z,13.00
2017-07-23T14:02:28.971Z,13.50
2017-07-23T14:04:55.270Z,12.47
2017-07-23T14:07:21.732Z,10.93
2017-07-23T14:09:48.235Z,10.90
2017-07-23T14:12:14.596Z,10.57
2017-07-23T14:14:40.878Z,9.30
2017-07-23T14:17:07.173Z,8.83
2017-07-23T14:19:33.478Z,9.07
2017-07-23T14:22:00.544Z,9.47
2017-07-23T14:24:26.813Z,7.40
2017-07-23T14:26:53.482Z,7.97
2017-07-23T14:29:19.870Z,7.70
2017-07-23T14:31:46.261Z,7.67
2017-07-23T14:34:12.605Z,7.53
2017-07-23T14:36:39.667Z,7.53
2017-07-23T14:39:06.153Z,6.50
2017-07-23T14:41:32.547Z,7.37
2017-07-23T14:43:58.903Z,6.93
2017-07-23T14:46:25.175Z,6.60
2017-07-23T14:48:51.474Z,6.30
2017-07-23T14:51:17.753Z,6.63
2017-07-23T14:53:44.033Z,6.40
2017-07-23T14:56:10.337Z,6.57
2017-07-23T14:58:36.610Z,6.97
2017-07-23T15:01:02.898Z,5.97
2017-07-23T15:03:29.151Z,6.30
2017-07-23T15:05:55.449Z,6.57
2017-07-23T15:08:21.719Z,6.50
2017-07-23T15:10:48.005Z,5.93
2017-07-23T15:13:14.316Z,5.47
2017-07-23T15:15:40.602Z,7.47
2017-07-23T15:18:07.776Z,6.50
2017-07-23T15:20:34.807Z,6.27
2017-07-23T15:23:01.829Z,7.30
2017-07-23T15:25:28.119Z,7.70
2017-07-23T15:27:54.412Z,7.80
2017-07-23T15:30:20.663Z,8.40
2017-07-23T15:32:47.698Z,8.53
2017-07-23T15:35:14.002Z,7.43
2017-07-23T15:37:40.286Z,7.70
2017-07-23T15:40:06.560Z,8.37
2017-07-23T15:42:32.841Z,7.27
2017-07-23T15:44:59.132Z,7.50
2017-07-23T15:47:25.422Z,6.67
2017-07-23T15:49:51.694Z,5.70
2017-07-23T15:52:18.721Z,6.80
2017-07-23T15:54:45.240Z,6.60
2017-07-23T15:57:11.804Z,6.87
2017-07-23T15:59:38.101Z,7.17
2017-07-23T16:02:04.361Z,7.10
2017-07-23T16:04:30.649Z,7.00
2017-07-23T16:06:56.935Z,9.40
2017-07-23T16:09:23.237Z,6.27
2017-07-23T16:11:49.534Z,5.27
2017-07-23T16:14:15.838Z,5.13
2017-07-23T16:16:42.159Z,3.70
2017-07-23T16:19:08.454Z,3.53
2017-07-23T16:21:34.708Z,3.60
2017-07-23T16:24:01.724Z,3.80
2017-07-23T16:26:28.060Z,5.30
2017-07-23T16:28:54.369Z,3.67
2017-07-23T16:31:21.033Z,3.40
2017-07-23T16:33:47.337Z,3.97
2017-07-23T16:36:13.675Z,3.43
2017-07-23T16:38:39.980Z,4.20
2017-07-23T16:41:06.284Z,3.87
2017-07-23T16:43:32.586Z,3.60
2017-07-23T16:45:58.925Z,3.90
2017-07-23T16:48:25.248Z,3.53
2017-07-23T16:50:51.589Z,3.67
2017-07-23T16:53:17.923Z,4.17
2017-07-23T16:55:44.290Z,3.53
2017-07-23T16:58:10.573Z,3.80
2017-07-23T17:00:36.865Z,3.00
2017-07-23T17:03:03.153Z,3.30
2017-07-23T17:05:29.442Z,3.23
2017-07-23T17:07:55.755Z,3.63
2017-07-23T17:10:22.024Z,3.80
2017-07-23T17:12:48.421Z,4.10
2017-07-23T17:15:15.539Z,4.27
2017-07-23T17:17:41.900Z,3.13
2017-07-23T17:20:08.215Z,3.83
2017-07-23T17:22:34.749Z,3.53
2017-07-23T17:25:01.056Z,3.63
2017-07-23T17:27:27.356Z,3.63
2017-07-23T17:29:54.413Z,3.67
2017-07-23T17:32:20.705Z,3.40
2017-07-23T17:34:47.059Z,4.30
2017-07-23T17:37:13.380Z,4.30
2017-07-23T17:39:39.666Z,5.63
2017-07-23T17:42:05.948Z,5.30
2017-07-23T17:44:32.219Z,4.47
2017-07-23T17:46:58.506Z,4.40
2017-07-23T17:49:24.869Z,4.77
2017-07-23T17:51:51.890Z,4.57
2017-07-23T17:54:18.168Z,4.50
2017-07-23T17:56:44.450Z,4.60
2017-07-23T17:59:10.746Z,4.57
2017-07-23T18:01:37.060Z,4.53
2017-07-23T18:04:03.339Z,5.07
2017-07-23T18:06:29.656Z,4.40
2017-07-23T18:08:55.990Z,5.20
2017-07-23T18:11:22.291Z,6.17
2017-07-23T18:13:48.573Z,5.00
2017-07-23T18:16:15.604Z,5.17
2017-07-23T18:18:41.967Z,4.80
2017-07-23T18:21:08.310Z,6.90
2017-07-23T18:23:34.638Z,5.33
2017-07-23T18:26:00.963Z,5.10
2017-07-23T18:28:27.345Z,5.50
2017-07-23T18:30:54.423Z,5.60
2017-07-23T18:33:20.728Z,4.77
2017-07-23T18:35:47.021Z,5.17
2017-07-23T18:38:13.353Z,5.27
2017-07-23T18:40:39.627Z,5.67
2017-07-23T18:43:05.925Z,5.87
2017-07-23T18:45:32.791Z,5.30
2017-07-23T18:47:59.160Z,6.93
2017-07-23T18:50:25.511Z,6.40
2017-07-23T18:52:51.900Z,6.47
2017-07-23T18:55:19.002Z,6.87
2017-07-23T18:57:45.271Z,6.60
2017-07-23T19:00:11.577Z,6.40
2017-07-23T19:02:37.897Z,6.53
2017-07-23T19:05:04.225Z,5.90
2017-07-23T19:07:30.561Z,6.27
2017-07-23T19:09:56.851Z,7.23
2017-07-23T19:12:23.198Z,6.57
2017-07-23T19:14:49.465Z,6.07
2017-07-23T19:17:15.754Z,6.30
2017-07-23T19:19:42.257Z,7.17
2017-07-23T19:22:09.391Z,7.40
2017-07-23T19:24:35.708Z,7.20
2017-07-23T19:27:02.786Z,6.43
2017-07-23T19:29:29.087Z,6.70
2017-07-23T19:31:55.462Z,7.63
2017-07-23T19:34:21.754Z,7.70
2017-07-23T19:36:48.057Z,6.37
2017-07-23T19:39:14.556Z,6.60
2017-07-23T19:41:40.839Z,6.73
2017-07-23T19:44:07.173Z,7.17
2017-07-23T19:46:33.413Z,6.83
2017-07-23T19:48:59.684Z,7.10
2017-07-23T19:51:25.989Z,7.70
2017-07-23T19:53:53.013Z,6.77
2017-07-23T19:56:19.316Z,6.90
2017-07-23T19:58:45.575Z,7.37
2017-07-23T20:01:11.886Z,7.97
2017-07-23T20:03:38.143Z,7.30
2017-07-23T20:06:05.159Z,7.43
2017-07-23T20:08:31.421Z,7.67
2017-07-23T20:10:57.690Z,6.57
2017-07-23T20:13:23.942Z,7.17
2017-07-23T20:15:50.203Z,7.00
2017-07-23T20:18:16.475Z,7.50
2017-07-23T20:20:42.735Z,7.00
2017-07-23T20:23:09.055Z,6.97
2017-07-23T20:25:36.089Z,7.60
2017-07-23T20:28:02.344Z,8.10
2017-07-23T20:30:28.610Z,7.23
2017-07-23T20:32:55.604Z,7.03
2017-07-23T20:35:21.843Z,6.80
2017-07-23T20:37:48.142Z,7.10
2017-07-23T20:40:14.652Z,6.67
2017-07-23T20:42:40.927Z,7.60
2017-07-23T20:45:07.186Z,7.70
2017-07-23T20:47:34.222Z,7.43
2017-07-23T20:50:00.522Z,8.13
2017-07-23T20:52:26.812Z,9.10
2017-07-23T20:54:53.111Z,8.73
2017-07-23T20:57:19.401Z,10.17
2017-07-23T20:59:45.706Z,7.37
2017-07-23T21:02:13.836Z,7.20
2017-07-23T21:04:40.223Z,7.50
2017-07-23T21:07:06.554Z,9.27
2017-07-23T21:09:32.842Z,8.63
2017-07-23T21:11:59.222Z,8.90
2017-07-23T21:14:25.478Z,9.17
2017-07-23T21:16:51.765Z,10.00
2017-07-23T21:19:24.895Z,8.87
2017-07-23T21:21:51.183Z,9.03
2017-07-23T21:24:17.476Z,7.90
2017-07-23T21:26:43.763Z,9.03
2017-07-23T21:29:10.063Z,7.73
2017-07-23T21:31:36.373Z,7.90
2017-07-23T21:34:02.646Z,8.10
2017-07-23T21:36:28.949Z,7.90
2017-07-23T21:38:55.958Z,8.20
2017-07-23T21:41:22.226Z,8.07
2017-07-23T21:43:48.524Z,7.60
2017-07-23T21:46:14.796Z,7.43
2017-07-23T21:48:41.126Z,8.10
2017-07-23T21:51:07.417Z,6.73
2017-07-23T21:53:33.753Z,7.70
2017-07-23T21:56:00.081Z,7.10
2017-07-23T21:58:26.354Z,8.83
2017-07-23T22:00:52.641Z,7.80
2017-07-23T22:03:19.673Z,8.60
2017-07-23T22:05:45.962Z,7.30
2017-07-23T22:08:12.238Z,7.90
2017-07-23T22:10:38.496Z,8.20
2017-07-23T22:13:04.776Z,7.83
2017-07-23T22:15:31.073Z,9.23
2017-07-23T22:17:57.349Z,8.10
2017-07-23T22:20:23.626Z,8.13
2017-07-23T22:22:49.866Z,7.93
2017-07-23T22:25:16.147Z,10.80
2017-07-23T22:27:42.404Z,8.00
2017-07-23T22:30:08.707Z,10.23
2017-07-23T22:32:35.723Z,7.57
2017-07-23T22:35:01.992Z,7.13
2017-07-23T22:37:29.008Z,7.33
2017-07-23T22:39:55.289Z,7.43
2017-07-23T22:42:21.591Z,7.63
2017-07-23T22:44:47.858Z,7.87
2017-07-23T22:47:14.153Z,8.67
2017-07-23T22:49:41.271Z,8.27
2017-07-23T22:52:07.551Z,8.57
2017-07-23T22:54:34.563Z,8.20
2017-07-23T22:57:00.847Z,8.30
2017-07-23T22:59:27.130Z,8.27
2017-07-23T23:01:54.166Z,8.50
2017-07-23T23:04:20.420Z,8.60
2017-07-23T23:06:46.693Z,7.73
2017-07-23T23:09:13.020Z,8.53
2017-07-23T23:11:39.285Z,8.20
2017-07-23T23:14:05.555Z,8.40
2017-07-23T23:16:31.817Z,9.80
2017-07-23T23:18:58.110Z,8.90
2017-07-23T23:21:24.372Z,9.00
2017-07-23T23:23:50.639Z,9.57
2017-07-23T23:26:16.889Z,9.20
2017-07-23T23:28:43.905Z,10.20
2017-07-23T23:31:10.140Z,10.50
2017-07-23T23:33:37.135Z,10.40
2017-07-23T23:36:03.429Z,10.33
2017-07-23T23:38:30.444Z,10.20
2017-07-23T23:40:56.717Z,9.97
2017-07-23T23:43:22.971Z,10.03
2017-07-23T23:45:49.262Z,10.50
2017-07-23T23:48:16.279Z,10.53
2017-07-23T23:50:42.544Z,10.97
2017-07-23T23:53:09.552Z,10.27
2017-07-23T23:55:35.850Z,10.13
2017-07-23T23:58:02.103Z,9.73
